sensor_id;sensor_type;location;lat;lon;timestamp;P1;durP1;ratioP1;P2;durP2;ratioP2
80586;SDS011;69943;20.850;106.728;2024-02-21T00:00:22;32.40;;;25.80;;
80586;SDS011;69943;20.850;106.728;2024-02-21T00:03:35;29.90;;;24.40;;
80586;SDS011;69943;20.850;106.728;2024-02-21T00:06:07;29.30;;;25.20;;
80586;SDS011;69943;20.850;106.728;2024-02-21T00:08:40;29.30;;;23.90;;
80586;SDS011;69943;20.850;106.728;2024-02-21T00:11:12;29.60;;;25.30;;
80586;SDS011;69943;20.850;106.728;2024-02-21T00:13:44;29.70;;;24.80;;
80586;SDS011;69943;20.850;106.728;2024-02-21T00:16:16;31.90;;;25.00;;
80586;SDS011;69943;20.850;106.728;2024-02-21T00:18:48;29.30;;;26.30;;
80586;SDS011;69943;20.850;106.728;2024-02-21T00:21:20;30.30;;;25.70;;
80586;SDS011;69943;20.850;106.728;2024-02-21T00:23:52;30.30;;;25.50;;
80586;SDS011;69943;20.850;106.728;2024-02-21T00:26:24;30.30;;;25.10;;
80586;SDS011;69943;20.850;106.728;2024-02-21T00:28:56;28.70;;;25.20;;
80586;SDS011;69943;20.850;106.728;2024-02-21T00:31:29;29.00;;;24.60;;
80586;SDS011;69943;20.850;106.728;2024-02-21T00:34:01;28.20;;;25.00;;
80586;SDS011;69943;20.850;106.728;2024-02-21T00:36:33;29.30;;;24.90;;
80586;SDS011;69943;20.850;106.728;2024-02-21T00:39:05;31.90;;;25.60;;
80586;SDS011;69943;20.850;106.728;2024-02-21T00:41:38;29.10;;;25.70;;
80586;SDS011;69943;20.850;106.728;2024-02-21T00:44:10;30.00;;;24.90;;
80586;SDS011;69943;20.850;106.728;2024-02-21T00:46:42;28.80;;;24.60;;
80586;SDS011;69943;20.850;106.728;2024-02-21T00:49:14;31.20;;;26.10;;
80586;SDS011;69943;20.850;106.728;2024-02-21T00:51:47;29.40;;;24.70;;
80586;SDS011;69943;20.850;106.728;2024-02-21T00:54:19;29.20;;;26.00;;
80586;SDS011;69943;20.850;106.728;2024-02-21T00:56:51;28.30;;;24.90;;
80586;SDS011;69943;20.850;106.728;2024-02-21T00:59:23;32.70;;;25.80;;
80586;SDS011;69943;20.850;106.728;2024-02-21T01:01:55;27.90;;;23.80;;
80586;SDS011;69943;20.850;106.728;2024-02-21T01:04:28;27.10;;;24.20;;
80586;SDS011;69943;20.850;106.728;2024-02-21T01:07:00;27.60;;;23.70;;
80586;SDS011;69943;20.850;106.728;2024-02-21T01:09:32;30.70;;;25.30;;
80586;SDS011;69943;20.850;106.728;2024-02-21T01:12:04;29.70;;;24.60;;
80586;SDS011;69943;20.850;106.728;2024-02-21T01:14:37;28.10;;;25.10;;
80586;SDS011;69943;20.850;106.728;2024-02-21T01:17:09;29.00;;;24.40;;
80586;SDS011;69943;20.850;106.728;2024-02-21T01:19:41;26.90;;;23.40;;
80586;SDS011;69943;20.850;106.728;2024-02-21T01:22:14;27.10;;;24.00;;
80586;SDS011;69943;20.850;106.728;2024-02-21T01:24:47;28.00;;;24.00;;
80586;SDS011;69943;20.850;106.728;2024-02-21T01:27:19;31.40;;;25.90;;
80586;SDS011;69943;20.850;106.728;2024-02-21T01:29:51;28.50;;;24.40;;
80586;SDS011;69943;20.850;106.728;2024-02-21T01:32:24;28.10;;;23.80;;
80586;SDS011;69943;20.850;106.728;2024-02-21T01:34:56;29.60;;;24.70;;
80586;SDS011;69943;20.850;106.728;2024-02-21T01:37:29;28.50;;;23.90;;
80586;SDS011;69943;20.850;106.728;2024-02-21T01:40:01;27.90;;;23.20;;
80586;SDS011;69943;20.850;106.728;2024-02-21T01:42:37;30.40;;;25.80;;
80586;SDS011;69943;20.850;106.728;2024-02-21T01:45:11;29.60;;;24.00;;
80586;SDS011;69943;20.850;106.728;2024-02-21T01:47:43;26.90;;;24.00;;
80586;SDS011;69943;20.850;106.728;2024-02-21T01:50:16;28.20;;;23.10;;
80586;SDS011;69943;20.850;106.728;2024-02-21T01:52:49;28.20;;;23.40;;
80586;SDS011;69943;20.850;106.728;2024-02-21T01:55:21;29.50;;;23.50;;
80586;SDS011;69943;20.850;106.728;2024-02-21T01:57:54;25.60;;;22.30;;
80586;SDS011;69943;20.850;106.728;2024-02-21T02:00:26;29.80;;;24.90;;
80586;SDS011;69943;20.850;106.728;2024-02-21T02:02:59;29.50;;;23.30;;
80586;SDS011;69943;20.850;106.728;2024-02-21T02:05:32;28.30;;;23.90;;
80586;SDS011;69943;20.850;106.728;2024-02-21T02:08:04;28.40;;;23.00;;
80586;SDS011;69943;20.850;106.728;2024-02-21T02:10:37;26.00;;;22.30;;
80586;SDS011;69943;20.850;106.728;2024-02-21T02:13:10;27.80;;;22.80;;
80586;SDS011;69943;20.850;106.728;2024-02-21T02:15:46;26.10;;;22.00;;
80586;SDS011;69943;20.850;106.728;2024-02-21T02:18:19;25.20;;;21.60;;
80586;SDS011;69943;20.850;106.728;2024-02-21T02:20:52;26.50;;;21.70;;
80586;SDS011;69943;20.850;106.728;2024-02-21T02:23:30;25.60;;;22.30;;
80586;SDS011;69943;20.850;106.728;2024-02-21T02:26:03;25.80;;;23.00;;
80586;SDS011;69943;20.850;106.728;2024-02-21T02:28:38;25.70;;;21.70;;
80586;SDS011;69943;20.850;106.728;2024-02-21T02:31:10;26.50;;;22.00;;
80586;SDS011;69943;20.850;106.728;2024-02-21T02:33:42;28.30;;;20.80;;
80586;SDS011;69943;20.850;106.728;2024-02-21T02:36:15;28.80;;;21.40;;
80586;SDS011;69943;20.850;106.728;2024-02-21T02:38:48;28.30;;;19.90;;
80586;SDS011;69943;20.850;106.728;2024-02-21T02:41:21;24.30;;;19.00;;
80586;SDS011;69943;20.850;106.728;2024-02-21T02:44:00;28.60;;;19.30;;
80586;SDS011;69943;20.850;106.728;2024-02-21T02:46:32;24.80;;;20.00;;
80586;SDS011;69943;20.850;106.728;2024-02-21T02:49:04;23.80;;;18.30;;
80586;SDS011;69943;20.850;106.728;2024-02-21T02:51:40;27.60;;;19.60;;
80586;SDS011;69943;20.850;106.728;2024-02-21T02:54:14;23.10;;;18.40;;
80586;SDS011;69943;20.850;106.728;2024-02-21T02:56:46;25.70;;;18.90;;
80586;SDS011;69943;20.850;106.728;2024-02-21T02:59:18;25.30;;;18.50;;
80586;SDS011;69943;20.850;106.728;2024-02-21T03:01:50;25.30;;;17.90;;
80586;SDS011;69943;20.850;106.728;2024-02-21T03:04:23;27.80;;;18.90;;
80586;SDS011;69943;20.850;106.728;2024-02-21T03:06:55;25.30;;;16.70;;
80586;SDS011;69943;20.850;106.728;2024-02-21T03:09:27;26.30;;;18.30;;
80586;SDS011;69943;20.850;106.728;2024-02-21T03:12:00;26.20;;;16.90;;
80586;SDS011;69943;20.850;106.728;2024-02-21T03:14:33;24.20;;;16.90;;
80586;SDS011;69943;20.850;106.728;2024-02-21T03:17:06;22.10;;;16.00;;
80586;SDS011;69943;20.850;106.728;2024-02-21T03:19:38;22.60;;;16.70;;
80586;SDS011;69943;20.850;106.728;2024-02-21T03:22:10;21.00;;;15.20;;
80586;SDS011;69943;20.850;106.728;2024-02-21T03:24:42;21.40;;;14.70;;
80586;SDS011;69943;20.850;106.728;2024-02-21T03:27:15;23.10;;;14.80;;
80586;SDS011;69943;20.850;106.728;2024-02-21T03:29:48;19.00;;;14.30;;
80586;SDS011;69943;20.850;106.728;2024-02-21T03:32:20;22.00;;;14.40;;
80586;SDS011;69943;20.850;106.728;2024-02-21T03:34:52;20.70;;;14.80;;
80586;SDS011;69943;20.850;106.728;2024-02-21T03:37:25;20.00;;;14.40;;
80586;SDS011;69943;20.850;106.728;2024-02-21T03:39:57;20.50;;;14.70;;
80586;SDS011;69943;20.850;106.728;2024-02-21T03:42:30;22.00;;;14.90;;
80586;SDS011;69943;20.850;106.728;2024-02-21T03:45:02;21.10;;;14.20;;
80586;SDS011;69943;20.850;106.728;2024-02-21T03:47:35;17.80;;;13.80;;
80586;SDS011;69943;20.850;106.728;2024-02-21T03:50:07;20.00;;;14.40;;
80586;SDS011;69943;20.850;106.728;2024-02-21T03:52:40;20.30;;;13.90;;
80586;SDS011;69943;20.850;106.728;2024-02-21T03:55:12;19.00;;;13.20;;
80586;SDS011;69943;20.850;106.728;2024-02-21T03:57:44;16.00;;;12.60;;
80586;SDS011;69943;20.850;106.728;2024-02-21T04:00:18;18.40;;;13.40;;
80586;SDS011;69943;20.850;106.728;2024-02-21T04:02:50;17.90;;;13.00;;
80586;SDS011;69943;20.850;106.728;2024-02-21T04:05:22;18.50;;;14.10;;
80586;SDS011;69943;20.850;106.728;2024-02-21T04:07:55;19.80;;;13.50;;
80586;SDS011;69943;20.850;106.728;2024-02-21T04:10:27;14.40;;;12.20;;
80586;SDS011;69943;20.850;106.728;2024-02-21T04:12:59;15.40;;;12.50;;
80586;SDS011;69943;20.850;106.728;2024-02-21T04:15:31;16.40;;;13.10;;
80586;SDS011;69943;20.850;106.728;2024-02-21T04:18:03;17.70;;;12.90;;
80586;SDS011;69943;20.850;106.728;2024-02-21T04:20:35;14.90;;;12.60;;
80586;SDS011;69943;20.850;106.728;2024-02-21T04:23:07;14.70;;;12.60;;
80586;SDS011;69943;20.850;106.728;2024-02-21T04:25:40;18.00;;;12.50;;
80586;SDS011;69943;20.850;106.728;2024-02-21T04:28:12;17.10;;;11.50;;
80586;SDS011;69943;20.850;106.728;2024-02-21T04:30:44;15.70;;;11.30;;
80586;SDS011;69943;20.850;106.728;2024-02-21T04:33:17;15.90;;;12.00;;
80586;SDS011;69943;20.850;106.728;2024-02-21T04:35:48;19.50;;;11.60;;
80586;SDS011;69943;20.850;106.728;2024-02-21T04:38:21;15.60;;;11.70;;
80586;SDS011;69943;20.850;106.728;2024-02-21T04:40:53;16.70;;;12.30;;
80586;SDS011;69943;20.850;106.728;2024-02-21T04:43:28;17.20;;;11.70;;
80586;SDS011;69943;20.850;106.728;2024-02-21T04:46:00;13.90;;;11.20;;
80586;SDS011;69943;20.850;106.728;2024-02-21T04:48:33;17.80;;;11.20;;
80586;SDS011;69943;20.850;106.728;2024-02-21T04:51:05;15.60;;;10.90;;
80586;SDS011;69943;20.850;106.728;2024-02-21T04:53:37;20.40;;;11.90;;
80586;SDS011;69943;20.850;106.728;2024-02-21T04:56:09;18.50;;;11.50;;
80586;SDS011;69943;20.850;106.728;2024-02-21T04:58:41;18.50;;;10.60;;
80586;SDS011;69943;20.850;106.728;2024-02-21T05:01:13;15.50;;;11.10;;
80586;SDS011;69943;20.850;106.728;2024-02-21T05:03:46;15.30;;;10.00;;
80586;SDS011;69943;20.850;106.728;2024-02-21T05:06:18;14.80;;;10.90;;
80586;SDS011;69943;20.850;106.728;2024-02-21T05:08:50;15.60;;;10.30;;
80586;SDS011;69943;20.850;106.728;2024-02-21T05:11:22;17.70;;;11.10;;
80586;SDS011;69943;20.850;106.728;2024-02-21T05:13:55;15.30;;;10.60;;
80586;SDS011;69943;20.850;106.728;2024-02-21T05:16:27;17.60;;;9.40;;
80586;SDS011;69943;20.850;106.728;2024-02-21T05:19:00;19.60;;;10.40;;
80586;SDS011;69943;20.850;106.728;2024-02-21T05:21:32;16.60;;;10.10;;
80586;SDS011;69943;20.850;106.728;2024-02-21T05:24:04;12.20;;;8.80;;
80586;SDS011;69943;20.850;106.728;2024-02-21T05:26:36;15.60;;;10.00;;
80586;SDS011;69943;20.850;106.728;2024-02-21T05:29:08;14.30;;;8.80;;
80586;SDS011;69943;20.850;106.728;2024-02-21T05:34:25;15.80;;;8.90;;
80586;SDS011;69943;20.850;106.728;2024-02-21T05:36:57;13.30;;;9.40;;
80586;SDS011;69943;20.850;106.728;2024-02-21T05:39:30;16.70;;;9.10;;
80586;SDS011;69943;20.850;106.728;2024-02-21T05:42:02;12.10;;;8.80;;
80586;SDS011;69943;20.850;106.728;2024-02-21T05:44:35;16.90;;;9.20;;
80586;SDS011;69943;20.850;106.728;2024-02-21T05:47:07;14.80;;;8.50;;
80586;SDS011;69943;20.850;106.728;2024-02-21T05:49:40;11.00;;;8.70;;
80586;SDS011;69943;20.850;106.728;2024-02-21T05:52:13;14.30;;;9.00;;
80586;SDS011;69943;20.850;106.728;2024-02-21T05:54:45;12.50;;;8.90;;
80586;SDS011;69943;20.850;106.728;2024-02-21T05:57:17;15.50;;;8.60;;
80586;SDS011;69943;20.850;106.728;2024-02-21T05:59:49;11.60;;;8.50;;
80586;SDS011;69943;20.850;106.728;2024-02-21T06:02:21;12.00;;;7.90;;
80586;SDS011;69943;20.850;106.728;2024-02-21T06:04:53;13.90;;;8.10;;
80586;SDS011;69943;20.850;106.728;2024-02-21T06:07:26;15.80;;;8.20;;
80586;SDS011;69943;20.850;106.728;2024-02-21T06:09:58;18.70;;;8.00;;
80586;SDS011;69943;20.850;106.728;2024-02-21T06:12:30;13.40;;;8.10;;
80586;SDS011;69943;20.850;106.728;2024-02-21T06:15:02;11.90;;;8.50;;
80586;SDS011;69943;20.850;106.728;2024-02-21T06:17:35;14.20;;;7.10;;
80586;SDS011;69943;20.850;106.728;2024-02-21T06:20:07;13.00;;;8.20;;
80586;SDS011;69943;20.850;106.728;2024-02-21T06:22:40;15.60;;;9.30;;
80586;SDS011;69943;20.850;106.728;2024-02-21T06:25:12;11.70;;;7.50;;
80586;SDS011;69943;20.850;106.728;2024-02-21T06:27:44;13.20;;;6.90;;
80586;SDS011;69943;20.850;106.728;2024-02-21T06:30:16;13.10;;;7.90;;
80586;SDS011;69943;20.850;106.728;2024-02-21T06:32:48;13.40;;;7.80;;
80586;SDS011;69943;20.850;106.728;2024-02-21T06:35:20;13.60;;;7.30;;
80586;SDS011;69943;20.850;106.728;2024-02-21T06:37:52;12.60;;;7.70;;
80586;SDS011;69943;20.850;106.728;2024-02-21T06:40:24;15.10;;;7.40;;
80586;SDS011;69943;20.850;106.728;2024-02-21T06:42:56;12.20;;;6.90;;
80586;SDS011;69943;20.850;106.728;2024-02-21T06:45:28;11.20;;;6.40;;
80586;SDS011;69943;20.850;106.728;2024-02-21T06:48:00;12.20;;;7.30;;
80586;SDS011;69943;20.850;106.728;2024-02-21T06:50:32;12.60;;;7.00;;
80586;SDS011;69943;20.850;106.728;2024-02-21T06:53:04;12.70;;;6.90;;
80586;SDS011;69943;20.850;106.728;2024-02-21T06:55:36;14.70;;;7.20;;
80586;SDS011;69943;20.850;106.728;2024-02-21T06:58:08;13.60;;;6.80;;
80586;SDS011;69943;20.850;106.728;2024-02-21T07:00:42;15.90;;;7.30;;
80586;SDS011;69943;20.850;106.728;2024-02-21T07:03:14;14.20;;;7.80;;
80586;SDS011;69943;20.850;106.728;2024-02-21T07:05:46;12.00;;;6.60;;
80586;SDS011;69943;20.850;106.728;2024-02-21T07:08:18;13.40;;;6.40;;
80586;SDS011;69943;20.850;106.728;2024-02-21T07:10:50;15.50;;;7.00;;
80586;SDS011;69943;20.850;106.728;2024-02-21T07:13:23;21.50;;;7.60;;
80586;SDS011;69943;20.850;106.728;2024-02-21T07:15:55;24.90;;;7.20;;
80586;SDS011;69943;20.850;106.728;2024-02-21T07:18:27;14.60;;;6.50;;
80586;SDS011;69943;20.850;106.728;2024-02-21T07:20:59;16.70;;;6.90;;
80586;SDS011;69943;20.850;106.728;2024-02-21T07:23:31;9.00;;;5.90;;
80586;SDS011;69943;20.850;106.728;2024-02-21T07:26:03;12.50;;;6.30;;
80586;SDS011;69943;20.850;106.728;2024-02-21T07:28:36;16.60;;;6.60;;
80586;SDS011;69943;20.850;106.728;2024-02-21T07:31:08;14.00;;;6.50;;
80586;SDS011;69943;20.850;106.728;2024-02-21T07:33:40;12.30;;;7.20;;
80586;SDS011;69943;20.850;106.728;2024-02-21T07:36:12;13.00;;;6.70;;
80586;SDS011;69943;20.850;106.728;2024-02-21T07:38:45;17.30;;;7.00;;
80586;SDS011;69943;20.850;106.728;2024-02-21T07:41:17;17.00;;;6.70;;
80586;SDS011;69943;20.850;106.728;2024-02-21T07:43:50;17.60;;;7.00;;
80586;SDS011;69943;20.850;106.728;2024-02-21T07:46:23;13.70;;;6.50;;
80586;SDS011;69943;20.850;106.728;2024-02-21T07:48:54;18.10;;;7.20;;
80586;SDS011;69943;20.850;106.728;2024-02-21T07:51:29;14.30;;;6.00;;
80586;SDS011;69943;20.850;106.728;2024-02-21T07:54:01;14.30;;;7.00;;
80586;SDS011;69943;20.850;106.728;2024-02-21T07:56:36;15.00;;;6.40;;
80586;SDS011;69943;20.850;106.728;2024-02-21T07:59:08;13.50;;;5.90;;
80586;SDS011;69943;20.850;106.728;2024-02-21T08:01:41;14.10;;;6.80;;
80586;SDS011;69943;20.850;106.728;2024-02-21T08:04:15;17.00;;;6.80;;
80586;SDS011;69943;20.850;106.728;2024-02-21T08:06:50;20.60;;;6.80;;
80586;SDS011;69943;20.850;106.728;2024-02-21T08:09:27;13.60;;;5.60;;
80586;SDS011;69943;20.850;106.728;2024-02-21T08:11:59;13.30;;;6.20;;
80586;SDS011;69943;20.850;106.728;2024-02-21T08:14:31;13.00;;;6.00;;
80586;SDS011;69943;20.850;106.728;2024-02-21T08:17:03;12.40;;;5.60;;
80586;SDS011;69943;20.850;106.728;2024-02-21T08:19:35;11.00;;;5.80;;
80586;SDS011;69943;20.850;106.728;2024-02-21T08:22:07;17.40;;;6.50;;
80586;SDS011;69943;20.850;106.728;2024-02-21T08:24:39;16.50;;;7.90;;
80586;SDS011;69943;20.850;106.728;2024-02-21T08:27:11;14.50;;;6.40;;
80586;SDS011;69943;20.850;106.728;2024-02-21T08:29:43;15.50;;;7.00;;
80586;SDS011;69943;20.850;106.728;2024-02-21T08:32:15;22.60;;;6.70;;
80586;SDS011;69943;20.850;106.728;2024-02-21T08:34:47;23.30;;;6.90;;
80586;SDS011;69943;20.850;106.728;2024-02-21T08:37:19;21.30;;;8.00;;
80586;SDS011;69943;20.850;106.728;2024-02-21T08:39:52;16.40;;;7.90;;
80586;SDS011;69943;20.850;106.728;2024-02-21T08:42:26;17.40;;;6.60;;
80586;SDS011;69943;20.850;106.728;2024-02-21T08:44:58;16.10;;;6.30;;
80586;SDS011;69943;20.850;106.728;2024-02-21T08:47:30;18.30;;;6.80;;
80586;SDS011;69943;20.850;106.728;2024-02-21T08:50:02;15.40;;;6.00;;
80586;SDS011;69943;20.850;106.728;2024-02-21T08:52:34;19.90;;;6.90;;
80586;SDS011;69943;20.850;106.728;2024-02-21T08:55:06;19.40;;;6.60;;
80586;SDS011;69943;20.850;106.728;2024-02-21T08:57:38;11.80;;;6.20;;
80586;SDS011;69943;20.850;106.728;2024-02-21T09:00:10;17.50;;;5.70;;
80586;SDS011;69943;20.850;106.728;2024-02-21T09:02:43;22.30;;;7.70;;
80586;SDS011;69943;20.850;106.728;2024-02-21T09:05:16;19.80;;;7.20;;
80586;SDS011;69943;20.850;106.728;2024-02-21T09:07:49;20.40;;;6.10;;
80586;SDS011;69943;20.850;106.728;2024-02-21T09:10:21;16.60;;;6.90;;
80586;SDS011;69943;20.850;106.728;2024-02-21T09:12:53;18.80;;;6.70;;
80586;SDS011;69943;20.850;106.728;2024-02-21T09:15:25;21.40;;;7.10;;
80586;SDS011;69943;20.850;106.728;2024-02-21T09:17:57;23.00;;;7.70;;
80586;SDS011;69943;20.850;106.728;2024-02-21T09:20:29;22.70;;;7.30;;
80586;SDS011;69943;20.850;106.728;2024-02-21T09:23:02;17.20;;;6.50;;
80586;SDS011;69943;20.850;106.728;2024-02-21T09:25:34;18.50;;;6.90;;
80586;SDS011;69943;20.850;106.728;2024-02-21T09:28:06;13.80;;;7.10;;
80586;SDS011;69943;20.850;106.728;2024-02-21T09:30:38;22.50;;;6.50;;
80586;SDS011;69943;20.850;106.728;2024-02-21T09:33:10;17.80;;;6.60;;
80586;SDS011;69943;20.850;106.728;2024-02-21T09:35:42;10.30;;;5.70;;
80586;SDS011;69943;20.850;106.728;2024-02-21T09:38:14;17.10;;;7.00;;
80586;SDS011;69943;20.850;106.728;2024-02-21T09:40:47;14.40;;;6.30;;
80586;SDS011;69943;20.850;106.728;2024-02-21T09:43:19;21.00;;;6.80;;
80586;SDS011;69943;20.850;106.728;2024-02-21T09:45:51;16.70;;;5.90;;
80586;SDS011;69943;20.850;106.728;2024-02-21T09:51:08;11.40;;;5.50;;
80586;SDS011;69943;20.850;106.728;2024-02-21T09:53:41;11.20;;;5.60;;
80586;SDS011;69943;20.850;106.728;2024-02-21T09:56:13;14.00;;;6.20;;
80586;SDS011;69943;20.850;106.728;2024-02-21T09:58:46;11.40;;;5.90;;
80586;SDS011;69943;20.850;106.728;2024-02-21T10:01:18;14.10;;;5.50;;
80586;SDS011;69943;20.850;106.728;2024-02-21T10:03:51;14.20;;;5.60;;
80586;SDS011;69943;20.850;106.728;2024-02-21T10:06:23;14.30;;;5.60;;
80586;SDS011;69943;20.850;106.728;2024-02-21T10:08:55;12.00;;;5.40;;
80586;SDS011;69943;20.850;106.728;2024-02-21T10:11:27;12.50;;;5.40;;
80586;SDS011;69943;20.850;106.728;2024-02-21T10:14:06;10.40;;;6.20;;
80586;SDS011;69943;20.850;106.728;2024-02-21T10:16:38;11.50;;;5.70;;
80586;SDS011;69943;20.850;106.728;2024-02-21T10:19:17;10.20;;;4.90;;
80586;SDS011;69943;20.850;106.728;2024-02-21T10:22:00;16.30;;;6.20;;
80586;SDS011;69943;20.850;106.728;2024-02-21T10:24:39;11.00;;;5.40;;
80586;SDS011;69943;20.850;106.728;2024-02-21T10:27:14;15.80;;;5.80;;
80586;SDS011;69943;20.850;106.728;2024-02-21T10:29:48;13.50;;;6.00;;
80586;SDS011;69943;20.850;106.728;2024-02-21T10:35:03;10.40;;;6.10;;
80586;SDS011;69943;20.850;106.728;2024-02-21T10:37:36;14.60;;;6.50;;
80586;SDS011;69943;20.850;106.728;2024-02-21T10:40:08;11.80;;;6.20;;
80586;SDS011;69943;20.850;106.728;2024-02-21T10:42:40;14.70;;;5.40;;
80586;SDS011;69943;20.850;106.728;2024-02-21T10:45:13;9.00;;;5.20;;
80586;SDS011;69943;20.850;106.728;2024-02-21T10:47:46;14.50;;;6.10;;
80586;SDS011;69943;20.850;106.728;2024-02-21T10:50:21;9.80;;;5.60;;
80586;SDS011;69943;20.850;106.728;2024-02-21T10:53:01;10.00;;;6.20;;
80586;SDS011;69943;20.850;106.728;2024-02-21T10:55:44;12.50;;;6.10;;
80586;SDS011;69943;20.850;106.728;2024-02-21T10:58:21;12.70;;;5.90;;
80586;SDS011;69943;20.850;106.728;2024-02-21T11:00:53;11.00;;;5.90;;
80586;SDS011;69943;20.850;106.728;2024-02-21T11:03:26;12.10;;;5.90;;
80586;SDS011;69943;20.850;106.728;2024-02-21T11:05:58;12.70;;;6.30;;
80586;SDS011;69943;20.850;106.728;2024-02-21T11:08:30;13.50;;;6.30;;
80586;SDS011;69943;20.850;106.728;2024-02-21T11:11:02;15.50;;;7.00;;
80586;SDS011;69943;20.850;106.728;2024-02-21T11:13:37;12.90;;;6.20;;
80586;SDS011;69943;20.850;106.728;2024-02-21T11:16:09;11.10;;;6.20;;
80586;SDS011;69943;20.850;106.728;2024-02-21T11:18:42;10.40;;;6.30;;
80586;SDS011;69943;20.850;106.728;2024-02-21T11:21:14;13.60;;;6.60;;
80586;SDS011;69943;20.850;106.728;2024-02-21T11:23:54;13.10;;;6.30;;
80586;SDS011;69943;20.850;106.728;2024-02-21T11:26:28;9.70;;;7.00;;
80586;SDS011;69943;20.850;106.728;2024-02-21T11:29:01;15.00;;;6.70;;
80586;SDS011;69943;20.850;106.728;2024-02-21T11:31:41;9.50;;;6.00;;
80586;SDS011;69943;20.850;106.728;2024-02-21T11:34:17;14.70;;;7.00;;
80586;SDS011;69943;20.850;106.728;2024-02-21T11:36:50;17.30;;;8.00;;
80586;SDS011;69943;20.850;106.728;2024-02-21T11:39:24;13.80;;;6.50;;
80586;SDS011;69943;20.850;106.728;2024-02-21T11:42:03;11.40;;;6.30;;
80586;SDS011;69943;20.850;106.728;2024-02-21T11:44:36;12.00;;;6.30;;
80586;SDS011;69943;20.850;106.728;2024-02-21T11:47:09;11.50;;;7.20;;
80586;SDS011;69943;20.850;106.728;2024-02-21T11:49:47;14.40;;;6.80;;
80586;SDS011;69943;20.850;106.728;2024-02-21T11:52:29;13.50;;;7.10;;
80586;SDS011;69943;20.850;106.728;2024-02-21T11:55:01;10.70;;;6.50;;
80586;SDS011;69943;20.850;106.728;2024-02-21T11:57:35;12.50;;;7.70;;
80586;SDS011;69943;20.850;106.728;2024-02-21T12:00:17;12.00;;;6.80;;
80586;SDS011;69943;20.850;106.728;2024-02-21T12:02:54;12.50;;;6.60;;
80586;SDS011;69943;20.850;106.728;2024-02-21T12:05:32;11.90;;;6.70;;
80586;SDS011;69943;20.850;106.728;2024-02-21T12:08:04;11.80;;;6.70;;
80586;SDS011;69943;20.850;106.728;2024-02-21T12:10:37;14.50;;;7.00;;
80586;SDS011;69943;20.850;106.728;2024-02-21T12:13:09;10.90;;;6.20;;
80586;SDS011;69943;20.850;106.728;2024-02-21T12:15:41;11.40;;;6.80;;
80586;SDS011;69943;20.850;106.728;2024-02-21T12:18:22;15.70;;;7.30;;
80586;SDS011;69943;20.850;106.728;2024-02-21T12:20:54;11.90;;;7.10;;
80586;SDS011;69943;20.850;106.728;2024-02-21T12:23:29;13.80;;;8.60;;
80586;SDS011;69943;20.850;106.728;2024-02-21T12:26:01;12.90;;;7.50;;
80586;SDS011;69943;20.850;106.728;2024-02-21T12:28:35;10.80;;;6.80;;
80586;SDS011;69943;20.850;106.728;2024-02-21T12:31:07;14.10;;;7.60;;
80586;SDS011;69943;20.850;106.728;2024-02-21T12:33:39;12.40;;;7.40;;
80586;SDS011;69943;20.850;106.728;2024-02-21T12:36:15;15.60;;;7.40;;
80586;SDS011;69943;20.850;106.728;2024-02-21T12:38:47;13.70;;;7.30;;
80586;SDS011;69943;20.850;106.728;2024-02-21T12:41:19;12.10;;;7.60;;
80586;SDS011;69943;20.850;106.728;2024-02-21T12:43:52;10.90;;;7.80;;
80586;SDS011;69943;20.850;106.728;2024-02-21T12:46:24;15.40;;;8.30;;
80586;SDS011;69943;20.850;106.728;2024-02-21T12:48:56;14.00;;;8.20;;
80586;SDS011;69943;20.850;106.728;2024-02-21T12:51:28;9.60;;;7.00;;
80586;SDS011;69943;20.850;106.728;2024-02-21T12:54:01;11.40;;;7.80;;
80586;SDS011;69943;20.850;106.728;2024-02-21T12:56:36;14.10;;;8.30;;
80586;SDS011;69943;20.850;106.728;2024-02-21T12:59:11;15.20;;;8.60;;
80586;SDS011;69943;20.850;106.728;2024-02-21T13:01:44;17.80;;;9.00;;
80586;SDS011;69943;20.850;106.728;2024-02-21T13:04:16;12.60;;;8.20;;
80586;SDS011;69943;20.850;106.728;2024-02-21T13:06:49;13.60;;;8.30;;
80586;SDS011;69943;20.850;106.728;2024-02-21T13:09:21;14.60;;;8.50;;
80586;SDS011;69943;20.850;106.728;2024-02-21T13:11:54;14.20;;;8.00;;
80586;SDS011;69943;20.850;106.728;2024-02-21T13:14:26;11.60;;;7.20;;
80586;SDS011;69943;20.850;106.728;2024-02-21T13:16:58;15.20;;;7.10;;
80586;SDS011;69943;20.850;106.728;2024-02-21T13:19:31;12.40;;;8.60;;
80586;SDS011;69943;20.850;106.728;2024-02-21T13:22:03;10.10;;;7.10;;
80586;SDS011;69943;20.850;106.728;2024-02-21T13:24:35;14.30;;;8.30;;
80586;SDS011;69943;20.850;106.728;2024-02-21T13:27:06;13.50;;;8.00;;
80586;SDS011;69943;20.850;106.728;2024-02-21T13:29:38;16.50;;;8.30;;
80586;SDS011;69943;20.850;106.728;2024-02-21T13:32:10;12.10;;;7.80;;
80586;SDS011;69943;20.850;106.728;2024-02-21T13:34:43;11.50;;;7.80;;
80586;SDS011;69943;20.850;106.728;2024-02-21T13:37:15;14.00;;;7.90;;
80586;SDS011;69943;20.850;106.728;2024-02-21T13:39:48;17.80;;;9.10;;
80586;SDS011;69943;20.850;106.728;2024-02-21T13:42:20;10.50;;;7.60;;
80586;SDS011;69943;20.850;106.728;2024-02-21T13:44:53;12.30;;;7.60;;
80586;SDS011;69943;20.850;106.728;2024-02-21T13:47:25;11.40;;;7.60;;
80586;SDS011;69943;20.850;106.728;2024-02-21T13:49:57;10.20;;;8.10;;
80586;SDS011;69943;20.850;106.728;2024-02-21T13:52:29;12.00;;;8.00;;
80586;SDS011;69943;20.850;106.728;2024-02-21T13:55:01;13.20;;;8.30;;
80586;SDS011;69943;20.850;106.728;2024-02-21T13:57:34;12.80;;;8.50;;
80586;SDS011;69943;20.850;106.728;2024-02-21T14:00:06;11.40;;;7.50;;
80586;SDS011;69943;20.850;106.728;2024-02-21T14:02:42;14.50;;;7.50;;
80586;SDS011;69943;20.850;106.728;2024-02-21T14:05:14;13.70;;;8.50;;
80586;SDS011;69943;20.850;106.728;2024-02-21T14:07:46;13.60;;;7.70;;
80586;SDS011;69943;20.850;106.728;2024-02-21T14:10:18;17.80;;;8.80;;
80586;SDS011;69943;20.850;106.728;2024-02-21T14:12:50;11.30;;;7.40;;
80586;SDS011;69943;20.850;106.728;2024-02-21T14:15:22;18.80;;;8.10;;
80586;SDS011;69943;20.850;106.728;2024-02-21T14:17:55;12.40;;;8.50;;
80586;SDS011;69943;20.850;106.728;2024-02-21T14:20:27;18.90;;;8.60;;
80586;SDS011;69943;20.850;106.728;2024-02-21T14:23:01;12.40;;;7.90;;
80586;SDS011;69943;20.850;106.728;2024-02-21T14:25:33;12.50;;;7.70;;
80586;SDS011;69943;20.850;106.728;2024-02-21T14:28:05;11.90;;;7.80;;
80586;SDS011;69943;20.850;106.728;2024-02-21T14:30:39;12.80;;;7.70;;
80586;SDS011;69943;20.850;106.728;2024-02-21T14:33:11;12.60;;;8.30;;
80586;SDS011;69943;20.850;106.728;2024-02-21T14:35:43;10.50;;;7.80;;
80586;SDS011;69943;20.850;106.728;2024-02-21T14:38:16;11.30;;;7.20;;
80586;SDS011;69943;20.850;106.728;2024-02-21T14:40:48;12.00;;;7.40;;
80586;SDS011;69943;20.850;106.728;2024-02-21T14:43:21;11.90;;;8.10;;